This is the latest recevied weather packets stored in our database for station/object DD6UBW. If no packets are shown the sender has not sent any weather packets the latest 10 day(s).
| Time | Temp. | Humidity | Pressure | Rain* | Wind** | Luminosity | Snow |
|---|---|---|---|---|---|---|---|
| 1777847402 | 18.89° C | 54% | 1009.6 hPa | 0 mm | - | - | - |
| 1777845601 | 18.33° C | 56% | 1009.6 hPa | 0 mm | - | - | - |
| 1777843800 | 18.33° C | 54% | 1009.6 hPa | 0 mm | - | - | - |
| 1777842001 | 19.44° C | 49% | 1009.6 hPa | 0 mm | - | - | - |
| 1777840201 | 21.11° C | 44% | 1009.6 hPa | 0 mm | - | - | - |
| 1777838401 | 19.44° C | 52% | 1009.6 hPa | 0 mm | - | - | - |
| 1777836601 | 20° C | 49% | 1009.6 hPa | 0 mm | - | - | - |
| 1777834800 | 21.67° C | 45% | 1008.6 hPa | 0 mm | - | - | - |
| 1777833001 | 22.78° C | 39% | 1008.6 hPa | 0 mm | - | - | - |
| 1777831201 | 25° C | 33% | 1008.6 hPa | 0 mm | - | - | - |
| 1777829400 | 26.11° C | 27% | 1008.6 hPa | 0 mm | - | - | - |
| 1777827601 | 27.22° C | 25% | 1008.6 hPa | 0 mm | - | - | - |
| 1777825800 | 28.33° C | 24% | 1008.6 hPa | 0 mm | - | - | - |
| 1777824001 | 27.78° C | 24% | 1009.6 hPa | 0 mm | - | - | - |
| 1777822202 | 28.33° C | 23% | 1009.6 hPa | 0 mm | - | - | - |
| 1777820400 | 28.89° C | 23% | 1009.6 hPa | 0 mm | - | - | - |
| 1777818601 | 28.89° C | 25% | 1009.6 hPa | 0 mm | - | - | - |
| 1777816801 | 29.44° C | 26% | 1010.6 hPa | 0 mm | - | - | - |
| 1777815001 | 28.89° C | 26% | 1010.6 hPa | 0 mm | - | - | - |
| 1777813201 | 28.33° C | 26% | 1010.6 hPa | 0 mm | - | - | - |
| 1777811400 | 28.33° C | 26% | 1010.6 hPa | 0 mm | - | - | - |
| 1777809601 | 28.33° C | 29% | 1011.6 hPa | 0 mm | - | - | - |
| 1777807801 | 28.33° C | 28% | 1011.6 hPa | 0 mm | - | - | - |
| 1777806000 | 27.78° C | 31% | 1011.6 hPa | 0 mm | - | - | - |
| 1777804201 | 27.22° C | 28% | 1011.6 hPa | 0 mm | - | - | - |
* Rain since midnight (hover to see other rain measurements)
** Current wind speed in m/s (hover to see current wind gust speed)